createdAt,value
2023-04-02T00:00:21.620Z,99004.91
2023-04-02T00:02:57.799Z,99010.03
2023-04-02T00:05:54.172Z,99002.38
2023-04-02T00:08:29.971Z,99008.31
2023-04-02T00:10:59.965Z,99009.16
2023-04-02T00:13:37.030Z,99010.88
2023-04-02T00:16:08.070Z,99013.47
2023-04-02T00:18:42.072Z,99013.47
2023-04-02T00:21:14.971Z,99016.84
2023-04-02T00:23:45.342Z,99009.09
2023-04-02T00:26:25.570Z,99020.28
2023-04-02T00:28:54.393Z,99009.13
2023-04-02T00:31:23.455Z,99022.84
2023-04-02T00:33:52.173Z,99023.69
2023-04-02T00:36:22.184Z,99026.25
2023-04-02T00:38:52.670Z,99029.72
2023-04-02T00:41:24.231Z,99030.50
2023-04-02T00:43:57.695Z,99027.97
2023-04-02T00:46:32.551Z,99026.25
2023-04-02T00:49:05.825Z,99031.38
2023-04-02T00:51:37.060Z,99033.97
2023-04-02T00:54:08.583Z,99034.78
2023-04-02T00:56:41.512Z,99031.34
2023-04-02T00:59:19.625Z,99030.50
2023-04-02T01:01:54.415Z,99030.47
2023-04-02T01:04:34.308Z,99037.34
2023-04-02T01:07:09.363Z,99026.13
2023-04-02T01:09:48.587Z,99033.88
2023-04-02T01:12:29.533Z,99038.16
2023-04-02T01:15:05.561Z,99040.72
2023-04-02T01:17:48.947Z,99034.69
2023-04-02T01:20:46.624Z,99032.94
2023-04-02T01:23:17.116Z,99035.56
2023-04-02T01:25:51.353Z,99037.31
2023-04-02T01:28:22.439Z,99039.00
2023-04-02T01:30:54.593Z,99037.25
2023-04-02T01:33:25.620Z,99037.28
2023-04-02T01:36:02.041Z,99032.94
2023-04-02T01:38:35.526Z,99030.31
2023-04-02T01:41:09.368Z,99034.66
2023-04-02T01:43:41.674Z,99033.84
2023-04-02T01:49:05.649Z,99032.97
2023-04-02T01:51:36.136Z,99028.66
2023-04-02T01:54:07.498Z,99026.09
2023-04-02T01:56:36.831Z,99027.81
2023-04-02T01:59:07.005Z,99032.06
2023-04-02T02:01:43.463Z,99026.03
2023-04-02T02:04:15.021Z,99036.34
2023-04-02T02:06:44.044Z,99024.31
2023-04-02T02:09:17.376Z,99039.78
2023-04-02T02:11:52.398Z,99040.66
2023-04-02T02:14:23.462Z,99037.19
2023-04-02T02:17:17.520Z,99032.91
2023-04-02T02:19:49.394Z,99041.50
2023-04-02T02:22:22.706Z,99038.06
2023-04-02T02:24:51.582Z,99040.63
2023-04-02T02:27:43.590Z,99046.66
2023-04-02T02:30:16.875Z,99050.09
2023-04-02T02:32:53.538Z,99050.03
2023-04-02T02:35:27.246Z,99050.03
2023-04-02T02:37:58.705Z,99042.25
2023-04-02T02:40:31.199Z,99059.44
2023-04-02T02:43:03.480Z,99050.84
2023-04-02T02:45:39.128Z,99042.28
2023-04-02T02:48:12.638Z,99047.41
2023-04-02T02:50:43.569Z,99045.66
2023-04-02T02:53:19.325Z,99047.38
2023-04-02T02:55:49.679Z,99051.72
2023-04-02T02:58:27.624Z,99062.88
2023-04-02T03:01:09.952Z,99049.13
2023-04-02T03:03:41.241Z,99058.56
2023-04-02T03:06:17.223Z,99051.66
2023-04-02T03:08:52.961Z,99050.84
2023-04-02T03:11:29.090Z,99053.41
2023-04-02T03:14:08.233Z,99055.09
2023-04-02T03:16:38.629Z,99068.84
2023-04-02T03:19:10.687Z,99065.41
2023-04-02T03:21:46.342Z,99072.31
2023-04-02T03:24:19.387Z,99073.16
2023-04-02T03:26:51.075Z,99068.84
2023-04-02T03:29:22.372Z,99064.53
2023-04-02T03:31:55.766Z,99070.53
2023-04-02T03:34:26.858Z,99072.28
2023-04-02T03:37:01.305Z,99078.31
2023-04-02T03:39:35.036Z,99074.81
2023-04-02T03:42:10.244Z,99081.72
2023-04-02T03:44:44.882Z,99075.66
2023-04-02T03:47:17.129Z,99079.09
2023-04-02T03:49:49.710Z,99073.94
2023-04-02T03:52:24.608Z,99073.94
2023-04-02T03:54:54.508Z,99078.22
2023-04-02T03:57:32.172Z,99074.81
2023-04-02T04:00:05.450Z,99069.59
2023-04-02T04:02:46.006Z,99070.41
2023-04-02T04:05:24.606Z,99063.56
2023-04-02T04:08:03.166Z,99070.47
2023-04-02T04:10:32.250Z,99067.06
2023-04-02T04:13:06.092Z,99068.75
2023-04-02T04:15:38.655Z,99072.22
2023-04-02T04:18:14.011Z,99066.19
2023-04-02T04:20:49.838Z,99072.16
2023-04-02T04:23:30.175Z,99087.66
2023-04-02T04:26:05.620Z,99086.78
2023-04-02T04:28:41.711Z,99088.50
2023-04-02T04:31:21.549Z,99097.09
2023-04-02T04:33:56.196Z,99096.22
2023-04-02T04:36:31.641Z,99095.38
2023-04-02T04:39:10.050Z,99108.28
2023-04-02T04:41:40.736Z,99099.66
2023-04-02T04:44:17.448Z,99096.16
2023-04-02T04:46:53.589Z,99095.28
2023-04-02T04:49:27.538Z,99100.38
2023-04-02T04:51:59.483Z,99103.75
2023-04-02T04:54:30.202Z,99105.50
2023-04-02T04:57:03.506Z,99108.09
2023-04-02T04:59:34.792Z,99103.84
2023-04-02T05:02:07.910Z,99113.28
2023-04-02T05:04:39.492Z,99112.41
2023-04-02T05:07:15.816Z,99110.69
2023-04-02T05:09:54.153Z,99110.66
2023-04-02T05:12:32.102Z,99111.53
2023-04-02T05:15:04.678Z,99111.44
2023-04-02T05:17:37.299Z,99114.94
2023-04-02T05:20:16.580Z,99112.38
2023-04-02T05:22:52.969Z,99108.13
2023-04-02T05:25:24.672Z,99110.69
2023-04-02T05:27:59.424Z,99121.84
2023-04-02T05:30:49.553Z,99113.25
2023-04-02T05:33:25.185Z,99124.34
2023-04-02T05:35:59.531Z,99121.88
2023-04-02T05:38:30.818Z,99122.69
2023-04-02T05:41:06.647Z,99125.28
2023-04-02T05:43:36.934Z,99112.38
2023-04-02T05:46:14.875Z,99121.81
2023-04-02T05:48:46.488Z,99122.53
2023-04-02T05:51:21.018Z,99123.34
2023-04-02T05:53:53.755Z,99126.72
2023-04-02T05:56:29.470Z,99120.81
2023-04-02T05:59:07.749Z,99119.84
2023-04-02T06:01:43.269Z,99128.38
2023-04-02T06:04:22.525Z,99132.72
2023-04-02T06:06:56.001Z,99128.28
2023-04-02T06:09:32.091Z,99130.91
2023-04-02T06:12:10.932Z,99128.16
2023-04-02T06:14:39.635Z,99124.78
2023-04-02T06:17:12.255Z,99129.97
2023-04-02T06:19:41.413Z,99141.19
2023-04-02T06:22:21.569Z,99141.06
2023-04-02T06:24:56.606Z,99139.41
2023-04-02T06:27:27.900Z,99132.56
2023-04-02T06:30:01.668Z,99134.25
2023-04-02T06:32:32.569Z,99132.41
2023-04-02T06:35:02.055Z,99123.78
2023-04-02T06:37:35.027Z,99121.44
2023-04-02T06:40:30.051Z,99132.28
2023-04-02T06:43:02.605Z,99122.66
2023-04-02T06:45:53.407Z,99115.94
2023-04-02T06:48:46.392Z,99132.13
2023-04-02T06:51:17.010Z,99129.34
2023-04-02T06:53:50.624Z,99127.88
2023-04-02T06:56:27.855Z,99134.44
2023-04-02T06:58:58.246Z,99133.34
2023-04-02T07:01:33.863Z,99124.63
2023-04-02T07:04:02.596Z,99136.56
2023-04-02T07:06:36.866Z,99138.38
2023-04-02T07:09:09.212Z,99146.09
2023-04-02T07:11:40.912Z,99139.19
2023-04-02T07:14:13.297Z,99138.31
2023-04-02T07:16:43.238Z,99138.50
2023-04-02T07:19:18.723Z,99153.06
2023-04-02T07:21:47.936Z,99147.75
2023-04-02T07:24:16.644Z,99152.84
2023-04-02T07:26:46.219Z,99154.50
2023-04-02T07:29:18.139Z,99155.56
2023-04-02T07:31:46.737Z,99161.78
2023-04-02T07:34:17.876Z,99163.50
2023-04-02T07:36:46.404Z,99155.59
2023-04-02T07:39:17.055Z,99175.50
2023-04-02T07:41:53.916Z,99160.91
2023-04-02T07:44:24.096Z,99171.25
2023-04-02T07:46:52.523Z,99164.47
2023-04-02T07:49:21.584Z,99167.94
2023-04-02T07:51:51.186Z,99165.97
2023-04-02T07:54:21.775Z,99173.44
2023-04-02T07:56:50.513Z,99171.63
2023-04-02T07:59:19.090Z,99175.09
2023-04-02T08:01:51.018Z,99168.03
2023-04-02T08:04:21.959Z,99175.59
2023-04-02T08:06:53.036Z,99171.97
2023-04-02T08:09:24.322Z,99162.84
2023-04-02T08:11:52.863Z,99162.78
2023-04-02T08:14:21.317Z,99166.34
2023-04-02T08:16:53.919Z,99169.66
2023-04-02T08:19:24.128Z,99176.78
2023-04-02T08:21:54.923Z,99182.78
2023-04-02T08:24:24.286Z,99181.00
2023-04-02T08:26:53.659Z,99183.09
2023-04-02T08:29:25.136Z,99186.63
2023-04-02T08:31:55.057Z,99182.94
2023-04-02T08:34:23.416Z,99173.75
2023-04-02T08:36:52.004Z,99180.41
2023-04-02T08:39:20.432Z,99178.31
2023-04-02T08:41:53.941Z,99175.94
2023-04-02T08:44:44.548Z,99174.97
2023-04-02T08:47:20.633Z,99180.53
2023-04-02T08:49:52.572Z,99172.47
2023-04-02T08:52:26.273Z,99182.94
2023-04-02T08:54:58.425Z,99172.59
2023-04-02T08:57:36.339Z,99176.88
2023-04-02T09:00:13.809Z,99180.38
2023-04-02T09:02:47.390Z,99173.75
2023-04-02T09:05:20.003Z,99182.25
2023-04-02T09:07:48.882Z,99171.34
2023-04-02T09:10:17.909Z,99187.56
2023-04-02T09:12:49.888Z,99181.63
2023-04-02T09:15:23.631Z,99180.84
2023-04-02T09:17:59.675Z,99179.72
2023-04-02T09:20:29.467Z,99179.78
2023-04-02T09:22:59.043Z,99181.50
2023-04-02T09:25:29.921Z,99179.75
2023-04-02T09:27:59.897Z,99183.97
2023-04-02T09:30:41.626Z,99192.34
2023-04-02T09:33:12.027Z,99182.88
2023-04-02T09:35:56.560Z,99186.56
2023-04-02T09:38:30.908Z,99190.25
2023-04-02T09:41:08.701Z,99188.34
2023-04-02T09:43:38.763Z,99192.00
2023-04-02T09:46:16.020Z,99198.50
2023-04-02T09:48:50.819Z,99188.97
2023-04-02T09:51:21.687Z,99190.56
2023-04-02T09:53:56.370Z,99189.72
2023-04-02T09:56:26.816Z,99193.00
2023-04-02T09:59:07.676Z,99195.00
2023-04-02T10:01:39.237Z,99197.13
2023-04-02T10:04:36.751Z,99191.94
2023-04-02T10:07:06.873Z,99191.06
2023-04-02T10:09:37.613Z,99193.44
2023-04-02T10:12:08.257Z,99197.56
2023-04-02T10:14:39.187Z,99188.09
2023-04-02T10:17:12.329Z,99179.13
2023-04-02T10:19:44.476Z,99182.16
2023-04-02T10:22:15.179Z,99188.09
2023-04-02T10:24:43.934Z,99186.47
2023-04-02T10:27:25.866Z,99194.94
2023-04-02T10:30:05.676Z,99184.88
2023-04-02T10:32:38.884Z,99192.81
2023-04-02T10:35:17.341Z,99183.25
2023-04-02T10:38:15.968Z,99191.22
2023-04-02T10:40:47.897Z,99185.41
2023-04-02T10:43:45.790Z,99186.84
2023-04-02T10:46:24.923Z,99184.13
2023-04-02T10:49:00.839Z,99177.75
2023-04-02T10:51:44.127Z,99175.19
2023-04-02T10:54:24.333Z,99175.28
2023-04-02T10:56:54.991Z,99185.81
2023-04-02T10:59:25.128Z,99172.53
2023-04-02T11:01:54.703Z,99174.69
2023-04-02T11:04:26.154Z,99175.34
2023-04-02T11:07:11.224Z,99169.25
2023-04-02T11:09:44.273Z,99167.72
2023-04-02T11:12:21.761Z,99161.03
2023-04-02T11:14:50.511Z,99167.44
2023-04-02T11:17:19.823Z,99177.91
2023-04-02T11:19:48.510Z,99178.53
2023-04-02T11:22:20.065Z,99177.94
2023-04-02T11:24:49.885Z,99175.31
2023-04-02T11:27:41.004Z,99173.34
2023-04-02T11:30:22.717Z,99181.66
2023-04-02T11:32:51.877Z,99175.78
2023-04-02T11:35:40.315Z,99180.97
2023-04-02T11:38:52.934Z,99189.94
2023-04-02T11:42:05.241Z,99186.03
2023-04-02T11:44:36.979Z,99187.50
2023-04-02T11:47:22.474Z,99192.91
2023-04-02T11:50:02.739Z,99188.34
2023-04-02T11:52:38.035Z,99188.69
2023-04-02T11:55:38.832Z,99187.38
2023-04-02T11:58:39.900Z,99193.09
2023-04-02T12:01:44.189Z,99189.34
2023-04-02T12:04:52.677Z,99184.66
2023-04-02T12:07:35.227Z,99178.13
2023-04-02T12:10:18.237Z,99177.84
2023-04-02T12:12:47.584Z,99172.84
2023-04-02T12:15:36.044Z,99174.88
2023-04-02T12:18:07.331Z,99177.47
2023-04-02T12:20:40.460Z,99180.00
2023-04-02T12:23:18.875Z,99187.94
2023-04-02T12:25:55.987Z,99190.31
2023-04-02T12:28:28.948Z,99183.81
2023-04-02T12:31:13.735Z,99199.75
2023-04-02T12:33:43.304Z,99193.56
2023-04-02T12:36:21.616Z,99206.13
2023-04-02T12:38:52.111Z,99202.59
2023-04-02T12:41:24.502Z,99205.72
2023-04-02T12:43:59.833Z,99201.53
2023-04-02T12:46:29.604Z,99209.47
2023-04-02T12:49:05.671Z,99204.41
2023-04-02T12:51:37.086Z,99211.16
2023-04-02T12:54:06.356Z,99208.66
2023-04-02T12:56:34.722Z,99207.97
2023-04-02T12:59:03.499Z,99207.88
2023-04-02T13:01:34.081Z,99209.94
2023-04-02T13:04:07.342Z,99208.31
2023-04-02T13:06:37.888Z,99215.91
2023-04-02T13:09:08.120Z,99210.56
2023-04-02T13:11:38.404Z,99209.56
2023-04-02T13:14:08.776Z,99203.19
2023-04-02T13:16:40.942Z,99214.28
2023-04-02T13:19:30.931Z,99206.63
2023-04-02T13:22:02.513Z,99204.16
2023-04-02T13:24:32.658Z,99210.81
2023-04-02T13:27:02.742Z,99208.25
2023-04-02T13:29:32.216Z,99208.53
2023-04-02T13:32:06.323Z,99216.09
2023-04-02T13:34:35.227Z,99215.13
2023-04-02T13:37:05.074Z,99206.69
2023-04-02T13:39:33.572Z,99200.53
2023-04-02T13:42:08.013Z,99204.75
2023-04-02T13:44:37.246Z,99198.03
2023-04-02T13:47:05.791Z,99198.72
2023-04-02T13:49:34.602Z,99195.16
2023-04-02T13:52:08.858Z,99193.31
2023-04-02T13:54:45.346Z,99188.22
2023-04-02T13:57:14.284Z,99194.06
2023-04-02T13:59:42.683Z,99195.13
2023-04-02T14:02:12.937Z,99198.38
2023-04-02T14:04:44.406Z,99196.22
2023-04-02T14:07:23.401Z,99202.25
2023-04-02T14:10:01.961Z,99195.06
2023-04-02T14:12:47.582Z,99188.22
2023-04-02T14:15:23.532Z,99195.25
2023-04-02T14:18:11.215Z,99191.06
2023-04-02T14:20:44.466Z,99196.97
2023-04-02T14:23:29.044Z,99195.25
2023-04-02T14:25:59.173Z,99193.41
2023-04-02T14:28:38.300Z,99180.72
2023-04-02T14:31:13.027Z,99191.81
2023-04-02T14:33:49.971Z,99190.06
2023-04-02T14:36:23.722Z,99192.69
2023-04-02T14:38:57.784Z,99192.56
2023-04-02T14:41:33.188Z,99185.56
2023-04-02T14:44:03.548Z,99186.63
2023-04-02T14:46:36.869Z,99183.22
2023-04-02T14:49:11.639Z,99184.81
2023-04-02T14:51:43.532Z,99191.69
2023-04-02T14:54:17.098Z,99190.81
2023-04-02T14:56:48.555Z,99188.28
2023-04-02T14:59:27.336Z,99193.53
2023-04-02T15:02:00.273Z,99193.31
2023-04-02T15:04:32.661Z,99193.53
2023-04-02T15:07:05.077Z,99202.19
2023-04-02T15:09:38.556Z,99200.56
2023-04-02T15:12:08.936Z,99195.34
2023-04-02T15:14:40.915Z,99190.28
2023-04-02T15:17:12.080Z,99202.41
2023-04-02T15:19:41.221Z,99199.06
2023-04-02T15:22:19.428Z,99203.25
2023-04-02T15:24:56.286Z,99201.66
2023-04-02T15:27:36.664Z,99205.19
2023-04-02T15:30:11.377Z,99203.50
2023-04-02T15:32:40.067Z,99201.78
2023-04-02T15:35:20.636Z,99203.47
2023-04-02T15:38:00.056Z,99199.28
2023-04-02T15:40:55.300Z,99205.25
2023-04-02T15:43:28.031Z,99208.81
2023-04-02T15:46:06.423Z,99209.66
2023-04-02T15:48:56.019Z,99209.56
2023-04-02T15:51:51.802Z,99219.03
2023-04-02T15:54:41.705Z,99208.00
2023-04-02T15:57:24.461Z,99219.09
2023-04-02T16:00:11.446Z,99225.28
2023-04-02T16:03:18.482Z,99227.81
2023-04-02T16:05:59.314Z,99221.81
2023-04-02T16:08:38.373Z,99231.34
2023-04-02T16:11:11.156Z,99228.81
2023-04-02T16:13:42.510Z,99233.16
2023-04-02T16:16:14.409Z,99229.75
2023-04-02T16:18:49.429Z,99239.38
2023-04-02T16:21:23.250Z,99236.03
2023-04-02T16:23:52.162Z,99248.06
2023-04-02T16:26:34.082Z,99248.97
2023-04-02T16:29:25.045Z,99253.25
2023-04-02T16:32:03.838Z,99261.94
2023-04-02T16:34:39.266Z,99255.03
2023-04-02T16:37:13.967Z,99261.94
2023-04-02T16:39:48.368Z,99270.69
2023-04-02T16:42:29.206Z,99265.53
2023-04-02T16:45:10.606Z,99266.41
2023-04-02T16:47:49.853Z,99269.97
2023-04-02T16:50:27.642Z,99275.13
2023-04-02T16:53:01.344Z,99270.00
2023-04-02T16:55:39.913Z,99273.50
2023-04-02T16:58:24.475Z,99268.38
2023-04-02T17:00:57.587Z,99283.06
2023-04-02T17:03:48.014Z,99278.00
2023-04-02T17:06:24.091Z,99275.50
2023-04-02T17:08:56.897Z,99278.09
2023-04-02T17:11:26.819Z,99276.44
2023-04-02T17:14:06.243Z,99281.75
2023-04-02T17:16:45.486Z,99279.81
2023-04-02T17:19:16.250Z,99280.72
2023-04-02T17:21:47.513Z,99285.94
2023-04-02T17:24:23.063Z,99285.97
2023-04-02T17:26:53.172Z,99280.88
2023-04-02T17:29:25.815Z,99284.31
2023-04-02T17:32:01.271Z,99282.53
2023-04-02T17:34:30.794Z,99285.91
2023-04-02T17:37:06.471Z,99287.66
2023-04-02T17:39:42.170Z,99283.41
2023-04-02T17:42:26.660Z,99282.53
2023-04-02T17:45:02.691Z,99289.44
2023-04-02T17:47:41.687Z,99289.41
2023-04-02T17:50:29.308Z,99293.72
2023-04-02T17:53:00.130Z,99296.38
2023-04-02T17:55:40.569Z,99289.47
2023-04-02T17:58:18.334Z,99302.41
2023-04-02T18:00:55.553Z,99290.41
2023-04-02T18:03:44.244Z,99299.00
2023-04-02T18:06:17.446Z,99296.44
2023-04-02T18:08:55.385Z,99301.56
2023-04-02T18:11:30.056Z,99304.16
2023-04-02T18:14:00.147Z,99303.34
2023-04-02T18:16:45.097Z,99306.84
2023-04-02T18:19:25.518Z,99306.78
2023-04-02T18:21:59.905Z,99309.28
2023-04-02T18:24:49.725Z,99303.19
2023-04-02T18:27:33.436Z,99307.56
2023-04-02T18:30:09.455Z,99318.78
2023-04-02T18:33:06.914Z,99311.06
2023-04-02T18:35:44.762Z,99314.44
2023-04-02T18:38:23.002Z,99318.91
2023-04-02T18:41:04.348Z,99314.75
2023-04-02T18:43:45.383Z,99314.59
2023-04-02T18:46:24.581Z,99310.25
2023-04-02T18:48:58.016Z,99318.13
2023-04-02T18:51:31.055Z,99320.72
2023-04-02T18:54:08.762Z,99315.53
2023-04-02T18:56:38.696Z,99322.53
2023-04-02T18:59:17.876Z,99325.09
2023-04-02T19:01:49.940Z,99322.50
2023-04-02T19:04:21.780Z,99319.09
2023-04-02T19:06:54.872Z,99320.81
2023-04-02T19:09:25.837Z,99321.59
2023-04-02T19:11:54.669Z,99329.41
2023-04-02T19:14:24.912Z,99329.31
2023-04-02T19:17:01.829Z,99323.38
2023-04-02T19:19:31.891Z,99331.97
2023-04-02T19:22:12.518Z,99327.78
2023-04-02T19:25:01.598Z,99334.66
2023-04-02T19:27:33.789Z,99334.69
2023-04-02T19:30:11.766Z,99328.56
2023-04-02T19:32:46.126Z,99328.66
2023-04-02T19:35:21.995Z,99336.34
2023-04-02T19:37:58.058Z,99336.50
2023-04-02T19:40:33.961Z,99335.63
2023-04-02T19:43:02.887Z,99333.09
2023-04-02T19:45:35.132Z,99335.63
2023-04-02T19:48:11.501Z,99335.84
2023-04-02T19:50:41.671Z,99334.13
2023-04-02T19:53:11.864Z,99335.91
2023-04-02T19:55:41.063Z,99338.50
2023-04-02T19:58:19.497Z,99332.47
2023-04-02T20:00:48.598Z,99340.22
2023-04-02T20:03:17.134Z,99342.88
2023-04-02T20:05:45.731Z,99347.16
2023-04-02T20:08:15.850Z,99342.03
2023-04-02T20:10:44.874Z,99341.81
2023-04-02T20:13:13.257Z,99348.78
2023-04-02T20:15:42.364Z,99353.97
2023-04-02T20:18:11.180Z,99354.91
2023-04-02T20:20:40.302Z,99352.38
2023-04-02T20:23:09.310Z,99350.78
2023-04-02T20:25:39.161Z,99355.13
2023-04-02T20:28:09.014Z,99359.41
2023-04-02T20:30:39.276Z,99356.03
2023-04-02T20:33:10.451Z,99357.66
2023-04-02T20:35:39.189Z,99353.44
2023-04-02T20:38:08.471Z,99362.88
2023-04-02T20:40:39.812Z,99372.44
2023-04-02T20:43:08.913Z,99372.50
2023-04-02T20:45:38.198Z,99364.72
2023-04-02T20:48:07.322Z,99369.09
2023-04-02T20:50:36.333Z,99369.16
2023-04-02T20:53:05.068Z,99360.47
2023-04-02T20:55:33.733Z,99358.75
2023-04-02T20:58:03.528Z,99358.75
2023-04-02T21:00:33.773Z,99362.25
2023-04-02T21:03:02.691Z,99359.50
2023-04-02T21:05:31.418Z,99356.91
2023-04-02T21:08:03.053Z,99362.22
2023-04-02T21:10:31.528Z,99359.66
2023-04-02T21:12:59.867Z,99365.69
2023-04-02T21:15:29.820Z,99363.06
2023-04-02T21:17:58.429Z,99363.19
2023-04-02T21:20:27.287Z,99365.72
2023-04-02T21:22:55.727Z,99363.13
2023-04-02T21:25:24.149Z,99364.06
2023-04-02T21:27:52.544Z,99370.91
2023-04-02T21:30:21.379Z,99364.03
2023-04-02T21:32:51.590Z,99359.63
2023-04-02T21:35:20.276Z,99368.34
2023-04-02T21:37:48.721Z,99354.53
2023-04-02T21:40:20.092Z,99364.09
2023-04-02T21:42:48.616Z,99365.84
2023-04-02T21:45:17.527Z,99364.97
2023-04-02T21:47:46.124Z,99371.91
2023-04-02T21:50:15.972Z,99369.41
2023-04-02T21:52:44.709Z,99372.00
2023-04-02T21:55:13.416Z,99379.81
2023-04-02T21:57:42.382Z,99373.78
2023-04-02T22:00:12.540Z,99378.16
2023-04-02T22:02:41.016Z,99385.06
2023-04-02T22:05:09.796Z,99382.50
2023-04-02T22:07:40.167Z,99383.47
2023-04-02T22:10:10.198Z,99384.31
2023-04-02T22:12:38.897Z,99382.63
2023-04-02T22:15:10.799Z,99391.22
2023-04-02T22:17:39.425Z,99386.97
2023-04-02T22:20:09.453Z,99389.59
2023-04-02T22:22:39.567Z,99391.31
2023-04-02T22:25:08.964Z,99385.34
2023-04-02T22:27:37.566Z,99388.03
2023-04-02T22:30:07.374Z,99395.66
2023-04-02T22:32:37.118Z,99386.16
2023-04-02T22:35:05.934Z,99379.34
2023-04-02T22:37:34.501Z,99385.31
2023-04-02T22:40:04.714Z,99387.00
2023-04-02T22:42:35.045Z,99385.28
2023-04-02T22:45:04.970Z,99389.69
2023-04-02T22:47:33.332Z,99389.63
2023-04-02T22:50:02.153Z,99381.09
2023-04-02T22:52:31.497Z,99385.41
2023-04-02T22:54:59.958Z,99383.69
2023-04-02T22:57:29.965Z,99389.69
2023-04-02T22:59:58.470Z,99382.75
2023-04-02T23:02:27.613Z,99381.91
2023-04-02T23:04:56.230Z,99390.50
2023-04-02T23:07:24.659Z,99383.56
2023-04-02T23:09:53.234Z,99386.22
2023-04-02T23:12:21.713Z,99387.81
2023-04-02T23:14:51.862Z,99387.88
2023-04-02T23:17:20.532Z,99385.34
2023-04-02T23:19:49.400Z,99388.78
2023-04-02T23:22:17.782Z,99387.91
2023-04-02T23:24:46.165Z,99390.50
2023-04-02T23:27:14.691Z,99391.41
2023-04-02T23:29:44.904Z,99397.38
2023-04-02T23:32:14.740Z,99390.50
2023-04-02T23:34:43.320Z,99390.56
2023-04-02T23:37:11.695Z,99383.66
2023-04-02T23:39:40.175Z,99392.22
2023-04-02T23:42:08.594Z,99387.88
2023-04-02T23:44:37.152Z,99387.81
2023-04-02T23:47:06.021Z,99386.13
2023-04-02T23:49:36.015Z,99382.75
2023-04-02T23:52:04.603Z,99387.13
2023-04-02T23:54:33.139Z,99383.72
2023-04-02T23:57:01.941Z,99387.22
2023-04-02T23:59:30.580Z,99394.97
